sensor_id;sensor_type;location;lat;lon;timestamp;P1;durP1;ratioP1;P2;durP2;ratioP2
50231;SDS011;36118;56.468;84.952;2022-08-18T00:01:11;4.40;;;2.70;;
50231;SDS011;36118;56.468;84.952;2022-08-18T00:06:17;4.45;;;2.90;;
50231;SDS011;36118;56.468;84.952;2022-08-18T00:11:20;9.02;;;2.67;;
50231;SDS011;36118;56.468;84.952;2022-08-18T00:16:24;9.77;;;3.00;;
50231;SDS011;36118;56.468;84.952;2022-08-18T00:21:27;5.80;;;2.60;;
50231;SDS011;36118;56.468;84.952;2022-08-18T00:26:30;5.85;;;2.35;;
50231;SDS011;36118;56.468;84.952;2022-08-18T00:31:37;5.68;;;2.38;;
50231;SDS011;36118;56.468;84.952;2022-08-18T00:36:40;5.22;;;2.35;;
50231;SDS011;36118;56.468;84.952;2022-08-18T00:41:43;3.50;;;2.28;;
50231;SDS011;36118;56.468;84.952;2022-08-18T00:46:46;4.35;;;2.40;;
50231;SDS011;36118;56.468;84.952;2022-08-18T00:51:49;4.97;;;2.15;;
50231;SDS011;36118;56.468;84.952;2022-08-18T00:56:53;4.72;;;2.05;;
50231;SDS011;36118;56.468;84.952;2022-08-18T01:01:59;3.35;;;2.08;;
50231;SDS011;36118;56.468;84.952;2022-08-18T01:07:05;5.10;;;2.20;;
50231;SDS011;36118;56.468;84.952;2022-08-18T01:12:11;4.53;;;1.90;;
50231;SDS011;36118;56.468;84.952;2022-08-18T01:17:34;3.97;;;1.80;;
50231;SDS011;36118;56.468;84.952;2022-08-18T01:28:06;7.45;;;2.10;;
50231;SDS011;36118;56.468;84.952;2022-08-18T01:33:09;5.15;;;1.90;;
50231;SDS011;36118;56.468;84.952;2022-08-18T01:38:14;3.95;;;1.98;;
50231;SDS011;36118;56.468;84.952;2022-08-18T01:43:19;5.43;;;1.70;;
50231;SDS011;36118;56.468;84.952;2022-08-18T01:48:32;4.97;;;2.00;;
50231;SDS011;36118;56.468;84.952;2022-08-18T01:53:36;10.82;;;2.00;;
50231;SDS011;36118;56.468;84.952;2022-08-18T01:58:39;9.43;;;1.80;;
50231;SDS011;36118;56.468;84.952;2022-08-18T02:03:44;4.53;;;1.90;;
50231;SDS011;36118;56.468;84.952;2022-08-18T02:08:50;3.65;;;1.83;;
50231;SDS011;36118;56.468;84.952;2022-08-18T02:13:54;7.23;;;2.00;;
50231;SDS011;36118;56.468;84.952;2022-08-18T02:18:57;4.22;;;1.60;;
50231;SDS011;36118;56.468;84.952;2022-08-18T02:24:00;8.32;;;1.73;;
50231;SDS011;36118;56.468;84.952;2022-08-18T02:29:03;4.97;;;1.75;;
50231;SDS011;36118;56.468;84.952;2022-08-18T02:34:09;4.85;;;1.70;;
50231;SDS011;36118;56.468;84.952;2022-08-18T02:39:12;6.20;;;2.20;;
50231;SDS011;36118;56.468;84.952;2022-08-18T02:44:15;3.95;;;1.60;;
50231;SDS011;36118;56.468;84.952;2022-08-18T03:05:20;3.83;;;1.60;;
50231;SDS011;36118;56.468;84.952;2022-08-18T03:10:23;4.40;;;1.52;;
50231;SDS011;36118;56.468;84.952;2022-08-18T03:15:34;2.78;;;1.63;;
50231;SDS011;36118;56.468;84.952;2022-08-18T03:20:39;4.43;;;1.65;;
50231;SDS011;36118;56.468;84.952;2022-08-18T03:25:50;3.13;;;1.70;;
50231;SDS011;36118;56.468;84.952;2022-08-18T03:30:58;5.22;;;1.58;;
50231;SDS011;36118;56.468;84.952;2022-08-18T03:36:04;5.45;;;1.50;;
50231;SDS011;36118;56.468;84.952;2022-08-18T03:41:09;4.10;;;1.48;;
50231;SDS011;36118;56.468;84.952;2022-08-18T03:46:14;2.78;;;1.20;;
50231;SDS011;36118;56.468;84.952;2022-08-18T03:51:20;3.50;;;1.70;;
50231;SDS011;36118;56.468;84.952;2022-08-18T03:56:30;8.10;;;1.40;;
50231;SDS011;36118;56.468;84.952;2022-08-18T04:01:40;4.00;;;1.08;;
50231;SDS011;36118;56.468;84.952;2022-08-18T04:06:45;6.22;;;1.50;;
50231;SDS011;36118;56.468;84.952;2022-08-18T04:11:55;3.40;;;1.35;;
50231;SDS011;36118;56.468;84.952;2022-08-18T04:17:04;2.25;;;1.08;;
50231;SDS011;36118;56.468;84.952;2022-08-18T04:22:07;2.40;;;0.85;;
50231;SDS011;36118;56.468;84.952;2022-08-18T04:27:18;4.75;;;1.02;;
50231;SDS011;36118;56.468;84.952;2022-08-18T04:32:22;4.00;;;1.20;;
50231;SDS011;36118;56.468;84.952;2022-08-18T04:37:31;2.97;;;1.10;;
50231;SDS011;36118;56.468;84.952;2022-08-18T04:42:40;5.38;;;1.20;;
50231;SDS011;36118;56.468;84.952;2022-08-18T04:47:44;2.33;;;1.05;;
50231;SDS011;36118;56.468;84.952;2022-08-18T04:52:47;2.83;;;1.08;;
50231;SDS011;36118;56.468;84.952;2022-08-18T04:58:08;2.88;;;0.90;;
50231;SDS011;36118;56.468;84.952;2022-08-18T05:03:11;2.15;;;1.00;;
50231;SDS011;36118;56.468;84.952;2022-08-18T05:08:14;5.30;;;1.50;;
50231;SDS011;36118;56.468;84.952;2022-08-18T05:13:17;2.67;;;1.30;;
50231;SDS011;36118;56.468;84.952;2022-08-18T05:18:21;3.05;;;1.20;;
50231;SDS011;36118;56.468;84.952;2022-08-18T05:23:27;2.83;;;1.27;;
50231;SDS011;36118;56.468;84.952;2022-08-18T05:28:31;5.22;;;1.35;;
50231;SDS011;36118;56.468;84.952;2022-08-18T05:38:51;2.80;;;1.10;;
50231;SDS011;36118;56.468;84.952;2022-08-18T05:43:59;5.32;;;1.60;;
50231;SDS011;36118;56.468;84.952;2022-08-18T05:49:03;2.10;;;1.00;;
50231;SDS011;36118;56.468;84.952;2022-08-18T05:54:06;4.68;;;1.17;;
50231;SDS011;36118;56.468;84.952;2022-08-18T05:59:32;2.63;;;1.25;;
50231;SDS011;36118;56.468;84.952;2022-08-18T06:04:39;3.63;;;1.20;;
50231;SDS011;36118;56.468;84.952;2022-08-18T06:09:50;6.20;;;1.13;;
50231;SDS011;36118;56.468;84.952;2022-08-18T06:15:03;3.47;;;1.50;;
50231;SDS011;36118;56.468;84.952;2022-08-18T06:30:38;6.88;;;1.35;;
50231;SDS011;36118;56.468;84.952;2022-08-18T06:35:54;3.30;;;1.40;;
50231;SDS011;36118;56.468;84.952;2022-08-18T06:57:52;2.67;;;1.40;;
50231;SDS011;36118;56.468;84.952;2022-08-18T07:02:59;3.05;;;1.05;;
50231;SDS011;36118;56.468;84.952;2022-08-18T07:08:14;3.30;;;1.15;;
50231;SDS011;36118;56.468;84.952;2022-08-18T07:13:26;2.47;;;1.25;;
50231;SDS011;36118;56.468;84.952;2022-08-18T07:18:36;6.28;;;3.47;;
50231;SDS011;36118;56.468;84.952;2022-08-18T07:23:38;2.85;;;1.20;;
50231;SDS011;36118;56.468;84.952;2022-08-18T07:28:46;3.20;;;1.45;;
50231;SDS011;36118;56.468;84.952;2022-08-18T07:33:57;6.88;;;2.20;;
50231;SDS011;36118;56.468;84.952;2022-08-18T07:39:05;2.60;;;1.42;;
50231;SDS011;36118;56.468;84.952;2022-08-18T07:49:33;2.40;;;1.20;;
50231;SDS011;36118;56.468;84.952;2022-08-18T08:05:42;2.65;;;0.80;;
50231;SDS011;36118;56.468;84.952;2022-08-18T08:11:19;1.95;;;0.80;;
50231;SDS011;36118;56.468;84.952;2022-08-18T08:42:55;4.38;;;0.95;;
50231;SDS011;36118;56.468;84.952;2022-08-18T08:48:11;2.23;;;0.70;;
50231;SDS011;36118;56.468;84.952;2022-08-18T08:58:28;2.05;;;0.88;;
50231;SDS011;36118;56.468;84.952;2022-08-18T09:09:40;1.63;;;0.70;;
50231;SDS011;36118;56.468;84.952;2022-08-18T09:25:11;4.38;;;1.60;;
50231;SDS011;36118;56.468;84.952;2022-08-18T09:36:19;3.15;;;0.80;;
50231;SDS011;36118;56.468;84.952;2022-08-18T09:41:28;2.60;;;0.60;;
50231;SDS011;36118;56.468;84.952;2022-08-18T09:51:45;1.45;;;0.50;;
50231;SDS011;36118;56.468;84.952;2022-08-18T09:57:06;1.42;;;0.50;;
50231;SDS011;36118;56.468;84.952;2022-08-18T10:07:33;2.55;;;0.52;;
50231;SDS011;36118;56.468;84.952;2022-08-18T10:23:40;2.25;;;1.00;;
50231;SDS011;36118;56.468;84.952;2022-08-18T10:39:55;3.53;;;0.98;;
50231;SDS011;36118;56.468;84.952;2022-08-18T10:50:25;3.97;;;1.20;;
50231;SDS011;36118;56.468;84.952;2022-08-18T10:55:45;2.28;;;1.00;;
50231;SDS011;36118;56.468;84.952;2022-08-18T11:01:05;2.13;;;1.17;;
50231;SDS011;36118;56.468;84.952;2022-08-18T13:11:22;9.38;;;2.40;;
50231;SDS011;36118;56.468;84.952;2022-08-18T13:21:50;8.10;;;2.97;;
50231;SDS011;36118;56.468;84.952;2022-08-18T13:26:53;6.90;;;2.60;;
50231;SDS011;36118;56.468;84.952;2022-08-18T13:31:57;5.65;;;2.63;;
50231;SDS011;36118;56.468;84.952;2022-08-18T13:37:00;7.82;;;3.20;;
50231;SDS011;36118;56.468;84.952;2022-08-18T13:42:03;6.18;;;2.25;;
50231;SDS011;36118;56.468;84.952;2022-08-18T13:47:27;6.22;;;2.30;;
50231;SDS011;36118;56.468;84.952;2022-08-18T13:52:39;4.32;;;2.15;;
50231;SDS011;36118;56.468;84.952;2022-08-18T13:57:57;6.63;;;2.15;;
50231;SDS011;36118;56.468;84.952;2022-08-18T14:03:18;8.98;;;2.83;;
50231;SDS011;36118;56.468;84.952;2022-08-18T14:08:45;9.02;;;3.45;;
50231;SDS011;36118;56.468;84.952;2022-08-18T14:13:47;17.90;;;3.70;;
50231;SDS011;36118;56.468;84.952;2022-08-18T14:18:50;13.90;;;4.63;;
50231;SDS011;36118;56.468;84.952;2022-08-18T14:24:12;9.73;;;3.47;;
50231;SDS011;36118;56.468;84.952;2022-08-18T14:34:48;7.95;;;3.00;;
50231;SDS011;36118;56.468;84.952;2022-08-18T14:40:02;9.23;;;3.45;;
50231;SDS011;36118;56.468;84.952;2022-08-18T14:45:11;7.43;;;4.10;;
50231;SDS011;36118;56.468;84.952;2022-08-18T14:50:35;7.97;;;5.10;;
50231;SDS011;36118;56.468;84.952;2022-08-18T14:55:39;9.93;;;5.60;;
50231;SDS011;36118;56.468;84.952;2022-08-18T15:00:43;13.57;;;6.07;;
50231;SDS011;36118;56.468;84.952;2022-08-18T15:05:57;14.52;;;6.10;;
50231;SDS011;36118;56.468;84.952;2022-08-18T15:11:01;12.60;;;6.10;;
50231;SDS011;36118;56.468;84.952;2022-08-18T15:16:15;15.18;;;7.05;;
50231;SDS011;36118;56.468;84.952;2022-08-18T15:21:18;10.38;;;7.28;;
50231;SDS011;36118;56.468;84.952;2022-08-18T15:26:40;16.17;;;9.00;;
50231;SDS011;36118;56.468;84.952;2022-08-18T15:31:43;15.85;;;8.43;;
50231;SDS011;36118;56.468;84.952;2022-08-18T15:36:51;11.85;;;8.32;;
50231;SDS011;36118;56.468;84.952;2022-08-18T15:41:54;11.30;;;7.53;;
50231;SDS011;36118;56.468;84.952;2022-08-18T15:46:59;12.48;;;9.15;;
50231;SDS011;36118;56.468;84.952;2022-08-18T15:52:03;14.30;;;9.30;;
50231;SDS011;36118;56.468;84.952;2022-08-18T15:57:12;17.45;;;11.68;;
50231;SDS011;36118;56.468;84.952;2022-08-18T16:02:36;15.57;;;12.27;;
50231;SDS011;36118;56.468;84.952;2022-08-18T16:07:40;18.75;;;10.93;;
50231;SDS011;36118;56.468;84.952;2022-08-18T16:12:46;20.95;;;10.30;;
50231;SDS011;36118;56.468;84.952;2022-08-18T16:17:49;19.88;;;9.07;;
50231;SDS011;36118;56.468;84.952;2022-08-18T16:22:54;12.80;;;8.35;;
50231;SDS011;36118;56.468;84.952;2022-08-18T16:27:59;10.05;;;6.95;;
50231;SDS011;36118;56.468;84.952;2022-08-18T16:33:03;8.63;;;6.05;;
50231;SDS011;36118;56.468;84.952;2022-08-18T16:38:07;11.60;;;5.80;;
50231;SDS011;36118;56.468;84.952;2022-08-18T16:43:10;8.23;;;6.03;;
50231;SDS011;36118;56.468;84.952;2022-08-18T16:48:19;9.40;;;4.70;;
50231;SDS011;36118;56.468;84.952;2022-08-18T16:53:31;7.97;;;5.20;;
50231;SDS011;36118;56.468;84.952;2022-08-18T16:58:41;5.20;;;3.60;;
50231;SDS011;36118;56.468;84.952;2022-08-18T17:04:10;6.20;;;3.75;;
50231;SDS011;36118;56.468;84.952;2022-08-18T17:09:21;8.00;;;3.40;;
50231;SDS011;36118;56.468;84.952;2022-08-18T17:14:25;4.32;;;2.88;;
50231;SDS011;36118;56.468;84.952;2022-08-18T17:19:31;6.00;;;3.50;;
50231;SDS011;36118;56.468;84.952;2022-08-18T17:24:35;4.90;;;3.20;;
50231;SDS011;36118;56.468;84.952;2022-08-18T17:35:18;5.78;;;3.55;;
50231;SDS011;36118;56.468;84.952;2022-08-18T17:40:32;4.38;;;3.05;;
50231;SDS011;36118;56.468;84.952;2022-08-18T17:45:47;5.18;;;3.00;;
50231;SDS011;36118;56.468;84.952;2022-08-18T17:51:03;8.48;;;4.10;;
50231;SDS011;36118;56.468;84.952;2022-08-18T17:56:37;12.68;;;5.20;;
50231;SDS011;36118;56.468;84.952;2022-08-18T18:01:44;9.75;;;4.75;;
50231;SDS011;36118;56.468;84.952;2022-08-18T18:06:46;13.02;;;5.25;;
50231;SDS011;36118;56.468;84.952;2022-08-18T18:11:50;7.38;;;3.58;;
50231;SDS011;36118;56.468;84.952;2022-08-18T18:17:02;4.35;;;2.58;;
50231;SDS011;36118;56.468;84.952;2022-08-18T18:22:26;4.35;;;2.97;;
50231;SDS011;36118;56.468;84.952;2022-08-18T18:38:01;7.43;;;3.60;;
50231;SDS011;36118;56.468;84.952;2022-08-18T18:43:22;5.53;;;3.13;;
50231;SDS011;36118;56.468;84.952;2022-08-18T18:54:28;4.43;;;2.60;;
50231;SDS011;36118;56.468;84.952;2022-08-18T18:59:46;4.93;;;2.30;;
50231;SDS011;36118;56.468;84.952;2022-08-18T19:05:03;4.18;;;2.13;;
50231;SDS011;36118;56.468;84.952;2022-08-18T19:10:12;2.88;;;2.03;;
50231;SDS011;36118;56.468;84.952;2022-08-18T19:15:20;3.95;;;2.30;;
50231;SDS011;36118;56.468;84.952;2022-08-18T19:20:36;7.15;;;2.97;;
50231;SDS011;36118;56.468;84.952;2022-08-18T19:30:46;4.68;;;2.60;;
50231;SDS011;36118;56.468;84.952;2022-08-18T19:42:27;3.90;;;2.42;;
50231;SDS011;36118;56.468;84.952;2022-08-18T19:47:16;6.05;;;2.90;;
50231;SDS011;36118;56.468;84.952;2022-08-18T20:14:20;6.50;;;2.75;;
50231;SDS011;36118;56.468;84.952;2022-08-18T20:19:43;7.20;;;2.83;;
50231;SDS011;36118;56.468;84.952;2022-08-18T20:25:30;7.32;;;3.38;;
50231;SDS011;36118;56.468;84.952;2022-08-18T20:46:41;4.10;;;2.72;;
50231;SDS011;36118;56.468;84.952;2022-08-18T20:57:34;5.30;;;3.20;;
50231;SDS011;36118;56.468;84.952;2022-08-18T21:02:39;5.18;;;3.17;;
50231;SDS011;36118;56.468;84.952;2022-08-18T21:08:47;3.47;;;2.90;;
50231;SDS011;36118;56.468;84.952;2022-08-18T21:13:45;4.55;;;3.10;;
50231;SDS011;36118;56.468;84.952;2022-08-18T21:18:55;4.72;;;2.90;;
50231;SDS011;36118;56.468;84.952;2022-08-18T21:24:31;6.78;;;3.15;;
50231;SDS011;36118;56.468;84.952;2022-08-18T21:29:34;6.13;;;3.00;;
50231;SDS011;36118;56.468;84.952;2022-08-18T21:34:50;6.00;;;3.50;;
50231;SDS011;36118;56.468;84.952;2022-08-18T21:39:54;7.18;;;3.65;;
50231;SDS011;36118;56.468;84.952;2022-08-18T21:44:59;6.85;;;3.28;;
50231;SDS011;36118;56.468;84.952;2022-08-18T21:50:11;5.50;;;2.70;;
50231;SDS011;36118;56.468;84.952;2022-08-18T22:00:38;4.50;;;2.67;;
50231;SDS011;36118;56.468;84.952;2022-08-18T22:06:03;6.10;;;2.92;;
50231;SDS011;36118;56.468;84.952;2022-08-18T22:11:17;6.03;;;2.95;;
50231;SDS011;36118;56.468;84.952;2022-08-18T22:22:49;4.90;;;2.40;;
50231;SDS011;36118;56.468;84.952;2022-08-18T22:28:20;5.35;;;2.80;;
50231;SDS011;36118;56.468;84.952;2022-08-18T22:33:24;8.18;;;3.08;;
50231;SDS011;36118;56.468;84.952;2022-08-18T22:38:26;6.50;;;2.90;;
50231;SDS011;36118;56.468;84.952;2022-08-18T22:43:31;9.73;;;3.30;;
50231;SDS011;36118;56.468;84.952;2022-08-18T22:48:33;4.55;;;3.15;;
50231;SDS011;36118;56.468;84.952;2022-08-18T22:53:36;5.40;;;3.60;;
50231;SDS011;36118;56.468;84.952;2022-08-18T22:58:39;8.48;;;3.35;;
50231;SDS011;36118;56.468;84.952;2022-08-18T23:03:45;7.03;;;3.55;;
50231;SDS011;36118;56.468;84.952;2022-08-18T23:08:48;4.72;;;3.50;;
50231;SDS011;36118;56.468;84.952;2022-08-18T23:13:58;6.15;;;3.90;;
50231;SDS011;36118;56.468;84.952;2022-08-18T23:19:03;6.28;;;3.70;;
50231;SDS011;36118;56.468;84.952;2022-08-18T23:24:07;9.38;;;4.00;;
50231;SDS011;36118;56.468;84.952;2022-08-18T23:29:11;6.10;;;3.60;;
50231;SDS011;36118;56.468;84.952;2022-08-18T23:34:16;4.63;;;3.70;;
50231;SDS011;36118;56.468;84.952;2022-08-18T23:39:21;7.80;;;3.00;;
50231;SDS011;36118;56.468;84.952;2022-08-18T23:44:25;4.80;;;3.40;;
50231;SDS011;36118;56.468;84.952;2022-08-18T23:49:29;8.10;;;3.35;;
50231;SDS011;36118;56.468;84.952;2022-08-18T23:54:32;5.53;;;3.13;;
50231;SDS011;36118;56.468;84.952;2022-08-18T23:59:36;4.53;;;2.80;;
